Time;durP1;ratioP1;P1;durP2;ratioP2;P2;SDS_P1;SDS_P2;PMS_P1;PMS_P2;Temp;Humidity;BMP_temperature;BMP_pressure;BME280_temperature;BME280_humidity;BME280_pressure;Samples;Min_cycle;Max_cycle;Signal;HPM_P1;HPM_P2
2022/06/06 00:01:58;;;;;;;0.40;0.40;;;22.30;84.70;;;;;;5035955;28;20212;-66
2022/06/06 00:04:46;;;;;;;0.40;0.40;;;22.30;85.00;;;;;;5034375;28;20244;-67
2022/06/06 00:07:34;;;;;;;0.40;0.40;;;22.20;85.20;;;;;;5036138;28;20240;-67
2022/06/06 00:10:23;;;;;;;0.40;0.40;;;22.20;85.40;;;;;;5035301;28;20225;-67
2022/06/06 00:13:13;;;;;;;0.40;0.40;;;22.20;85.50;;;;;;5035302;28;20202;-67
2022/06/06 00:16:03;;;;;;;0.40;0.40;;;22.20;86.10;;;;;;5034002;28;20198;-67
2022/06/06 00:18:51;;;;;;;0.40;0.40;;;22.10;87.20;;;;;;5034698;28;20202;-67
2022/06/06 00:21:40;;;;;;;0.40;0.40;;;22.10;89.60;;;;;;5035025;28;20752;-67
2022/06/06 00:24:29;;;;;;;0.40;0.40;;;22.00;90.60;;;;;;5035842;28;20781;-67
2022/06/06 00:27:17;;;;;;;0.40;0.40;;;22.00;92.20;;;;;;5034754;28;20198;-67
2022/06/06 00:30:06;;;;;;;0.40;0.40;;;21.90;94.10;;;;;;5034319;28;20226;-67
2022/06/06 00:36:01;;;;;;;0.40;0.40;;;21.60;97.30;;;;;;5034621;28;20705;-67
2022/06/06 00:38:49;;;;;;;0.40;0.40;;;21.60;98.90;;;;;;5036294;28;20285;-67
2022/06/06 00:41:38;;;;;;;0.40;0.40;;;21.60;99.90;;;;;;5037276;28;20198;-67
2022/06/06 00:44:30;;;;;;;0.40;0.40;;;21.50;99.90;;;;;;5046649;28;20226;-67
2022/06/06 00:47:25;;;;;;;0.40;0.40;;;21.40;99.90;;;;;;5048823;28;20201;-67
2022/06/06 00:50:17;;;;;;;0.40;0.40;;;21.40;99.90;;;;;;5035135;28;20210;-67
2022/06/06 00:53:08;;;;;;;0.40;0.40;;;21.30;99.90;;;;;;5033799;28;20198;-66
2022/06/06 00:56:04;;;;;;;0.40;0.40;;;21.20;99.90;;;;;;5035486;28;20202;-66
2022/06/06 00:58:55;;;;;;;0.40;0.40;;;21.20;99.90;;;;;;5035094;28;20693;-67
2022/06/06 01:01:44;;;;;;;0.40;0.40;;;21.20;99.90;;;;;;5035193;28;20197;-67
2022/06/06 01:04:34;;;;;;;0.40;0.40;;;21.20;99.90;;;;;;5033517;28;20262;-67
2022/06/06 01:07:23;;;;;;;0.40;0.40;;;21.20;99.90;;;;;;5034122;28;20209;-66
2022/06/06 01:10:14;;;;;;;0.40;0.40;;;21.10;99.90;;;;;;5033802;28;20262;-66
2022/06/06 01:13:04;;;;;;;0.40;0.40;;;21.10;99.90;;;;;;5034824;28;20670;-67
2022/06/06 01:16:06;;;;;;;0.40;0.40;;;21.10;99.90;;;;;;5034867;28;20206;-67
2022/06/06 01:19:06;;;;;;;0.40;0.40;;;21.00;99.90;;;;;;5035285;28;20208;-67
2022/06/06 01:22:18;;;;;;;0.40;0.40;;;20.80;99.90;;;;;;5033645;28;20197;-67
2022/06/06 01:25:38;;;;;;;0.40;0.40;;;20.60;99.90;;;;;;5035210;28;20226;-70
2022/06/06 01:28:49;;;;;;;0.40;0.40;;;20.60;99.90;;;;;;5025987;28;20229;-66
2022/06/06 01:31:43;;;;;;;0.40;0.40;;;20.40;99.90;;;;;;5033793;28;20638;-66
2022/06/06 01:34:33;;;;;;;0.40;0.40;;;20.30;99.90;;;;;;5034464;28;20714;-67
2022/06/06 01:37:28;;;;;;;0.40;0.40;;;20.20;99.90;;;;;;5034498;28;20205;-66
2022/06/06 01:40:17;;;;;;;0.40;0.40;;;20.20;99.90;;;;;;5033415;28;20581;-66
2022/06/06 01:43:10;;;;;;;0.40;0.40;;;20.10;99.90;;;;;;5033563;28;20202;-66
2022/06/06 01:46:03;;;;;;;0.40;0.40;;;20.10;99.90;;;;;;5034199;28;20276;-67
2022/06/06 01:48:52;;;;;;;0.40;0.40;;;20.10;99.90;;;;;;5033271;28;20201;-67
2022/06/06 01:51:41;;;;;;;0.40;0.40;;;20.00;99.90;;;;;;5034156;28;20222;-67
2022/06/06 01:54:29;;;;;;;0.40;0.40;;;20.00;99.90;;;;;;5032645;28;20218;-66
2022/06/06 01:57:17;;;;;;;0.40;0.40;;;19.90;99.90;;;;;;5021856;28;20225;-67
2022/06/06 02:00:07;;;;;;;0.40;0.40;;;19.80;99.90;;;;;;5031854;28;20719;-67
2022/06/06 02:02:56;;;;;;;0.40;0.40;;;19.80;99.90;;;;;;5032646;28;20205;-66
2022/06/06 02:05:45;;;;;;;0.40;0.40;;;19.80;99.90;;;;;;5033603;28;20206;-67
2022/06/06 02:08:34;;;;;;;0.40;0.40;;;19.80;99.90;;;;;;5033369;28;20198;-66
2022/06/06 02:11:22;;;;;;;0.40;0.40;;;19.80;99.90;;;;;;5034030;28;20225;-66
2022/06/06 02:14:11;;;;;;;0.40;0.40;;;19.80;99.90;;;;;;5034033;28;20276;-67
2022/06/06 02:16:59;;;;;;;0.40;0.40;;;19.70;99.90;;;;;;5049041;28;20197;-67
2022/06/06 02:19:49;;;;;;;0.40;0.40;;;19.70;99.90;;;;;;5052737;28;20208;-67
2022/06/06 02:22:37;;;;;;;0.40;0.40;;;19.70;99.90;;;;;;5044961;28;20202;-67
2022/06/06 02:25:26;;;;;;;0.40;0.40;;;19.60;99.90;;;;;;5033960;28;20213;-67
2022/06/06 02:28:15;;;;;;;0.40;0.40;;;19.60;99.90;;;;;;5033812;28;20312;-67
2022/06/06 02:31:03;;;;;;;0.40;0.40;;;19.60;99.90;;;;;;5033355;28;20255;-66
2022/06/06 02:33:52;;;;;;;0.40;0.40;;;19.60;99.90;;;;;;5032460;28;20225;-67
2022/06/06 02:36:41;;;;;;;0.40;0.40;;;19.60;99.90;;;;;;5033366;28;20287;-67
2022/06/06 02:39:33;;;;;;;0.40;0.40;;;19.50;99.90;;;;;;5033119;28;20198;-67
2022/06/06 02:42:21;;;;;;;0.40;0.40;;;19.50;99.90;;;;;;5032770;28;20362;-67
2022/06/06 02:45:12;;;;;;;0.40;0.40;;;19.40;99.90;;;;;;5033058;28;20218;-66
2022/06/06 02:48:00;;;;;;;0.40;0.40;;;19.40;99.90;;;;;;5037340;28;20198;-66
2022/06/06 02:50:49;;;;;;;0.40;0.40;;;19.40;99.90;;;;;;5036764;28;20253;-67
2022/06/06 02:53:39;;;;;;;0.40;0.40;;;19.30;99.90;;;;;;5036713;28;20221;-67
2022/06/06 02:56:28;;;;;;;0.40;0.40;;;19.30;99.90;;;;;;5036362;28;20580;-66
2022/06/06 02:59:20;;;;;;;0.40;0.40;;;19.30;99.90;;;;;;5036018;28;20606;-67
2022/06/06 03:02:08;;;;;;;0.70;0.60;;;19.30;99.90;;;;;;5037079;28;20205;-66
2022/06/06 03:04:57;;;;;;;1.65;1.13;;;19.20;99.90;;;;;;5037092;28;20232;-67
2022/06/06 03:07:58;;;;;;;0.40;0.40;;;19.20;99.90;;;;;;5037493;28;20213;-66
2022/06/06 03:11:00;;;;;;;0.40;0.40;;;19.00;99.90;;;;;;5036704;28;20263;-67
2022/06/06 03:14:11;;;;;;;1.60;0.70;;;18.90;99.90;;;;;;5059183;22;20283;-74
2022/06/06 03:20:47;;;;;;;0.50;0.50;;;18.70;99.90;;;;;;5033239;28;20202;-70
2022/06/06 03:23:49;;;;;;;1.98;1.58;;;18.70;99.90;;;;;;5033402;28;20609;-73
2022/06/06 03:26:51;;;;;;;0.40;0.40;;;18.60;99.90;;;;;;5032881;28;20229;-70
2022/06/06 03:29:55;;;;;;;0.40;0.40;;;18.50;99.90;;;;;;5033687;28;20204;-74
2022/06/06 03:32:55;;;;;;;0.50;0.50;;;18.40;99.90;;;;;;5034705;28;20693;-70
2022/06/06 03:35:53;;;;;;;0.50;0.50;;;18.40;99.90;;;;;;5033284;28;20198;-71
2022/06/06 03:38:46;;;;;;;0.40;0.40;;;18.40;99.90;;;;;;5032484;28;20233;-72
2022/06/06 03:41:41;;;;;;;0.40;0.40;;;18.40;99.90;;;;;;5032413;28;20220;-74
2022/06/06 03:44:45;;;;;;;0.40;0.40;;;18.50;99.90;;;;;;5033539;28;20221;-71
2022/06/06 03:47:42;;;;;;;0.40;0.40;;;18.50;99.90;;;;;;5033191;28;20681;-70
2022/06/06 03:50:47;;;;;;;0.77;0.77;;;18.60;99.90;;;;;;5032696;28;20202;-70
2022/06/06 03:53:42;;;;;;;0.40;0.40;;;18.60;99.90;;;;;;5033064;28;20284;-74
2022/06/06 03:56:42;;;;;;;0.40;0.40;;;18.70;99.90;;;;;;5032136;28;20217;-70
2022/06/06 03:59:31;;;;;;;0.40;0.40;;;18.80;99.90;;;;;;5032677;28;20206;-72
2022/06/06 04:02:24;;;;;;;0.82;0.82;;;18.80;99.90;;;;;;5033265;28;20232;-74
2022/06/06 04:05:15;;;;;;;0.40;0.40;;;18.80;99.90;;;;;;5033828;28;20222;-72
2022/06/06 04:08:03;;;;;;;0.85;0.85;;;18.70;99.90;;;;;;5032707;28;20202;-73
2022/06/06 04:11:04;;;;;;;0.40;0.40;;;18.70;99.90;;;;;;5033359;28;20256;-72
2022/06/06 04:14:03;;;;;;;0.40;0.40;;;18.70;99.90;;;;;;5032233;28;20646;-70
2022/06/06 04:16:59;;;;;;;0.45;0.45;;;18.70;99.90;;;;;;5033116;28;20209;-71
2022/06/06 04:19:58;;;;;;;0.40;0.40;;;18.70;99.90;;;;;;5032810;28;20198;-72
2022/06/06 04:22:59;;;;;;;0.40;0.40;;;18.80;99.90;;;;;;5032557;28;20264;-69
2022/06/06 04:25:54;;;;;;;0.40;0.40;;;18.90;99.90;;;;;;5033512;28;20253;-71
2022/06/06 04:28:53;;;;;;;0.70;0.70;;;18.90;99.90;;;;;;5032632;28;20233;-70
2022/06/06 04:31:52;;;;;;;0.40;0.40;;;18.90;99.90;;;;;;5033450;28;20202;-70
2022/06/06 04:34:48;;;;;;;0.80;0.63;;;18.90;99.90;;;;;;5033206;28;20214;-71
2022/06/06 04:37:44;;;;;;;0.40;0.40;;;19.00;99.90;;;;;;5032113;28;20293;-72
2022/06/06 04:40:40;;;;;;;0.40;0.40;;;19.00;99.90;;;;;;5032413;28;20693;-73
2022/06/06 04:43:34;;;;;;;0.40;0.40;;;19.10;99.90;;;;;;5033825;28;20248;-70
2022/06/06 04:46:27;;;;;;;0.40;0.40;;;19.20;99.90;;;;;;5032631;28;20198;-73
2022/06/06 04:49:15;;;;;;;0.50;0.50;;;19.10;99.90;;;;;;5032715;28;20233;-72
2022/06/06 04:52:05;;;;;;;0.40;0.40;;;19.20;99.90;;;;;;5033024;28;20678;-71
2022/06/06 04:54:55;;;;;;;0.40;0.40;;;19.30;99.90;;;;;;5032554;28;20222;-71
2022/06/06 04:57:46;;;;;;;0.40;0.40;;;19.30;99.90;;;;;;5031563;28;20576;-73
2022/06/06 05:00:36;;;;;;;0.40;0.40;;;19.30;99.90;;;;;;5031584;28;20202;-71
2022/06/06 05:03:24;;;;;;;1.08;0.98;;;19.40;99.90;;;;;;5031094;28;20306;-72
2022/06/06 05:06:32;;;;;;;1.52;1.42;;;19.40;99.90;;;;;;5031334;28;20216;-71
2022/06/06 05:09:34;;;;;;;0.50;0.50;;;19.40;99.90;;;;;;5030934;28;20332;-72
2022/06/06 05:12:47;;;;;;;0.85;0.85;;;19.50;99.90;;;;;;5030847;28;20204;-71
2022/06/06 05:15:46;;;;;;;1.13;1.13;;;19.60;99.90;;;;;;5031143;28;20226;-71
2022/06/06 05:18:54;;;;;;;0.60;0.60;;;19.70;99.90;;;;;;5032267;28;20194;-71
2022/06/06 05:21:57;;;;;;;0.47;0.47;;;19.80;99.90;;;;;;5031392;28;20508;-72
2022/06/06 05:25:06;;;;;;;0.40;0.40;;;19.80;99.90;;;;;;5031516;28;20213;-73
2022/06/06 05:28:13;;;;;;;0.60;0.60;;;19.90;99.90;;;;;;5031477;28;20206;-73
2022/06/06 05:31:09;;;;;;;0.40;0.40;;;20.10;99.90;;;;;;5030255;28;20202;-71
2022/06/06 05:34:03;;;;;;;0.52;0.52;;;20.00;99.90;;;;;;5031611;28;20218;-73
2022/06/06 05:37:15;;;;;;;0.77;0.77;;;20.00;99.90;;;;;;5030471;28;20202;-74
2022/06/06 05:40:21;;;;;;;0.40;0.40;;;20.00;99.90;;;;;;5030982;28;20197;-71
2022/06/06 05:43:35;;;;;;;0.70;0.70;;;19.90;99.90;;;;;;5031176;28;20256;-70
2022/06/06 05:46:38;;;;;;;0.40;0.40;;;19.90;99.90;;;;;;5032110;28;20205;-70
2022/06/06 05:49:43;;;;;;;0.40;0.40;;;19.80;99.90;;;;;;5031003;28;20197;-70
2022/06/06 05:53:01;;;;;;;1.48;1.27;;;19.70;99.90;;;;;;5030945;28;20647;-70
2022/06/06 05:56:14;;;;;;;0.40;0.40;;;19.70;99.90;;;;;;5030801;28;20233;-73
2022/06/06 05:59:18;;;;;;;0.40;0.40;;;19.60;99.90;;;;;;5031358;28;20206;-71
2022/06/06 06:02:25;;;;;;;0.55;0.55;;;19.40;99.90;;;;;;5030705;28;20605;-69
2022/06/06 06:05:19;;;;;;;0.40;0.40;;;19.20;99.90;;;;;;5030883;28;20319;-74
2022/06/06 06:08:20;;;;;;;0.50;0.50;;;19.10;99.90;;;;;;5031263;28;20248;-71
2022/06/06 06:11:24;;;;;;;0.47;0.47;;;18.90;99.90;;;;;;5031303;28;20206;-71
2022/06/06 06:14:25;;;;;;;0.40;0.40;;;18.70;99.90;;;;;;5031382;28;20232;-71
2022/06/06 06:17:15;;;;;;;0.40;0.40;;;18.70;99.90;;;;;;5030748;28;20260;-72
2022/06/06 06:20:06;;;;;;;0.40;0.40;;;18.70;99.90;;;;;;5031334;28;20241;-73
2022/06/06 06:22:57;;;;;;;0.50;0.50;;;18.80;99.90;;;;;;5034877;28;20276;-70
2022/06/06 06:25:47;;;;;;;0.40;0.40;;;19.00;99.90;;;;;;5035271;28;20773;-69
2022/06/06 06:28:37;;;;;;;0.40;0.40;;;19.10;99.90;;;;;;5035216;28;20201;-69
2022/06/06 06:31:37;;;;;;;0.50;0.50;;;19.20;99.90;;;;;;5034809;28;20580;-69
2022/06/06 06:34:33;;;;;;;0.40;0.40;;;19.30;99.90;;;;;;5035332;28;20419;-70
2022/06/06 06:37:35;;;;;;;4.43;2.42;;;19.40;99.90;;;;;;5034600;28;20208;-71
2022/06/06 06:40:40;;;;;;;0.40;0.40;;;19.50;99.90;;;;;;5035970;28;20697;-70
2022/06/06 06:43:45;;;;;;;1.20;1.20;;;19.60;99.90;;;;;;5038021;28;20223;-71
2022/06/06 06:46:41;;;;;;;0.60;0.57;;;19.70;99.90;;;;;;5034235;28;20248;-70
2022/06/06 06:49:37;;;;;;;0.40;0.40;;;19.70;99.90;;;;;;5034216;28;20206;-70
2022/06/06 06:52:35;;;;;;;0.40;0.40;;;19.80;99.90;;;;;;5033225;28;20577;-70
2022/06/06 06:55:36;;;;;;;0.40;0.40;;;19.80;99.90;;;;;;5035001;28;20222;-71
2022/06/06 06:58:38;;;;;;;0.70;0.70;;;19.90;99.90;;;;;;5034547;28;20776;-70
2022/06/06 07:01:33;;;;;;;0.40;0.40;;;20.10;99.90;;;;;;5034619;28;20692;-72
2022/06/06 07:11:00;;;;;;;1.95;1.85;;;20.20;99.90;;;;;;5034188;28;20209;-71
2022/06/06 07:14:00;;;;;;;0.50;0.50;;;20.30;99.90;;;;;;5034257;28;20311;-74
2022/06/06 07:16:55;;;;;;;0.75;0.75;;;20.40;99.90;;;;;;5033589;28;20205;-70
2022/06/06 07:19:49;;;;;;;1.40;1.30;;;20.50;99.90;;;;;;5034293;28;20206;-72
2022/06/06 07:25:48;;;;;;;1.60;0.98;;;20.70;99.90;;;;;;5038166;28;20224;-71
2022/06/06 07:28:36;;;;;;;0.50;0.50;;;20.80;99.90;;;;;;5039251;28;20273;-73
2022/06/06 07:31:32;;;;;;;0.77;0.68;;;20.80;99.90;;;;;;5038647;28;20209;-71
2022/06/06 07:34:41;;;;;;;0.40;0.40;;;20.90;99.90;;;;;;5039254;28;20241;-70
2022/06/06 07:37:43;;;;;;;0.93;0.88;;;21.10;99.90;;;;;;5039185;28;20632;-73
2022/06/06 07:40:49;;;;;;;0.40;0.40;;;21.20;99.90;;;;;;5038452;28;20233;-70
2022/06/06 07:44:01;;;;;;;0.60;0.60;;;21.30;99.90;;;;;;5037725;28;20721;-70
2022/06/06 07:47:00;;;;;;;1.08;1.08;;;21.40;99.90;;;;;;5038705;28;20210;-71
2022/06/06 07:49:55;;;;;;;0.40;0.40;;;21.40;99.90;;;;;;5037845;28;20209;-72
2022/06/06 07:52:55;;;;;;;0.50;0.50;;;21.40;99.90;;;;;;5036625;28;20710;-73
2022/06/06 07:55:48;;;;;;;1.00;0.90;;;21.70;99.90;;;;;;5037556;28;20197;-72
2022/06/06 07:58:45;;;;;;;0.50;0.50;;;21.90;99.90;;;;;;5035910;28;20203;-74
2022/06/06 08:01:45;;;;;;;0.70;0.70;;;22.00;99.90;;;;;;5034207;28;20202;-71
2022/06/06 08:04:45;;;;;;;0.45;0.45;;;22.20;99.90;;;;;;5033033;28;20230;-71
2022/06/06 08:07:42;;;;;;;0.52;0.52;;;22.40;99.90;;;;;;5033725;28;20217;-75
2022/06/06 08:10:37;;;;;;;3.08;1.40;;;22.50;99.90;;;;;;5033450;28;20675;-73
2022/06/06 08:13:56;;;;;;;0.40;0.40;;;22.50;99.90;;;;;;5032692;28;20791;-73
2022/06/06 08:16:48;;;;;;;0.75;0.47;;;22.70;99.90;;;;;;5033370;28;20204;-71
2022/06/06 08:19:56;;;;;;;4.10;2.65;;;22.80;99.90;;;;;;5032168;28;20230;-70
2022/06/06 08:22:45;;;;;;;0.82;0.82;;;22.80;99.90;;;;;;5033449;28;20201;-71
2022/06/06 08:25:37;;;;;;;0.50;0.50;;;22.90;99.90;;;;;;5033532;28;20245;-69
2022/06/06 08:28:27;;;;;;;0.50;0.50;;;23.30;99.90;;;;;;5034335;28;20202;-68
2022/06/06 08:31:15;;;;;;;0.60;0.60;;;23.70;99.90;;;;;;5035241;28;20198;-67
2022/06/06 08:34:03;;;;;;;0.60;0.60;;;23.80;99.90;;;;;;5033328;28;20694;-68
2022/06/06 08:37:19;;;;;;;0.77;0.57;;;23.60;99.90;;;;;;5033081;28;20680;-72
2022/06/06 08:40:38;;;;;;;0.50;0.50;;;23.40;99.90;;;;;;5034531;28;20198;-71
2022/06/06 08:43:59;;;;;;;0.70;0.70;;;23.40;99.90;;;;;;5032111;28;20214;-71
2022/06/06 08:47:05;;;;;;;0.40;0.40;;;23.50;99.90;;;;;;5033258;28;20276;-68
2022/06/06 08:53:48;;;;;;;1.38;1.17;;;23.70;99.90;;;;;;5033434;28;20202;-71
2022/06/06 08:57:06;;;;;;;0.50;0.50;;;23.50;99.90;;;;;;5033464;28;20230;-69
2022/06/06 09:00:20;;;;;;;0.40;0.40;;;23.70;99.90;;;;;;5032479;28;20682;-69
2022/06/06 09:03:53;;;;;;;0.40;0.40;;;23.90;99.90;;;;;;5035089;28;20205;-68
2022/06/06 09:07:18;;;;;;;0.50;0.50;;;24.50;99.90;;;;;;5033712;28;20209;-68
2022/06/06 09:10:46;;;;;;;0.77;0.77;;;24.70;99.90;;;;;;5025539;28;20198;-68
2022/06/06 09:17:19;;;;;;;1.38;0.68;;;24.40;99.90;;;;;;5014731;28;20305;-66
2022/06/06 09:20:51;;;;;;;0.40;0.40;;;24.50;99.90;;;;;;5014407;28;20573;-66
2022/06/06 09:24:17;;;;;;;0.40;0.40;;;24.90;99.90;;;;;;5013147;28;20215;-67
2022/06/06 09:27:36;;;;;;;0.40;0.40;;;25.30;99.90;;;;;;5013853;28;20202;-66
2022/06/06 09:30:42;;;;;;;0.50;0.50;;;25.20;99.90;;;;;;5013862;28;20277;-66
2022/06/06 09:34:03;;;;;;;1.65;0.70;;;25.00;99.90;;;;;;5014825;28;20629;-66
2022/06/06 09:37:08;;;;;;;1.10;1.02;;;25.00;99.90;;;;;;5013846;28;20198;-66
2022/06/06 09:39:57;;;;;;;0.65;0.65;;;24.90;99.90;;;;;;5014828;28;20202;-66
2022/06/06 09:43:02;;;;;;;0.50;0.50;;;24.90;99.90;;;;;;5014200;28;20202;-66
2022/06/06 09:46:23;;;;;;;2.33;2.10;;;25.10;99.90;;;;;;5014984;28;20257;-66
2022/06/06 09:49:44;;;;;;;0.40;0.40;;;24.90;99.90;;;;;;5008884;28;20589;-65
2022/06/06 09:53:01;;;;;;;0.40;0.40;;;24.70;99.90;;;;;;4998186;28;20635;-65
2022/06/06 09:59:59;;;;;;;0.40;0.40;;;24.40;99.90;;;;;;5003610;28;20241;-68
2022/06/06 10:03:21;;;;;;;0.40;0.40;;;24.70;99.90;;;;;;5014153;28;20621;-66
2022/06/06 10:06:32;;;;;;;0.50;0.50;;;24.80;99.90;;;;;;5013394;28;20309;-66
2022/06/06 10:09:54;;;;;;;0.47;0.47;;;25.00;99.90;;;;;;5013463;28;20233;-66
2022/06/06 10:12:59;;;;;;;0.47;0.47;;;25.20;99.90;;;;;;5012942;28;20198;-66
2022/06/06 10:16:16;;;;;;;0.60;0.60;;;25.10;99.90;;;;;;5013820;28;20698;-66
2022/06/06 10:19:23;;;;;;;0.40;0.40;;;25.10;99.90;;;;;;5012763;28;20210;-67
2022/06/06 10:22:49;;;;;;;0.80;0.80;;;25.20;99.90;;;;;;5012873;28;20655;-66
2022/06/06 10:26:21;;;;;;;1.42;1.33;;;24.90;99.90;;;;;;5013837;28;20242;-66
2022/06/06 10:30:10;;;;;;;0.50;0.50;;;24.40;99.90;;;;;;5013009;28;20199;-66
2022/06/06 10:33:04;;;;;;;0.40;0.40;;;24.20;99.90;;;;;;5015437;28;20195;-66
2022/06/06 10:36:01;;;;;;;0.40;0.40;;;24.20;99.90;;;;;;4987404;28;20308;-66
2022/06/06 10:39:16;;;;;;;0.40;0.40;;;24.40;99.90;;;;;;5013263;28;20694;-66
2022/06/06 10:42:27;;;;;;;0.40;0.40;;;24.40;99.90;;;;;;5013095;28;20210;-66
2022/06/06 10:45:29;;;;;;;0.40;0.40;;;24.70;99.90;;;;;;5012815;28;20221;-66
2022/06/06 10:48:42;;;;;;;0.43;0.43;;;24.80;99.90;;;;;;5013128;28;20206;-66
2022/06/06 10:52:09;;;;;;;0.40;0.40;;;24.80;99.90;;;;;;5012370;28;20202;-66
2022/06/06 10:55:21;;;;;;;0.40;0.40;;;24.80;99.90;;;;;;5013020;28;20280;-66
2022/06/06 10:58:38;;;;;;;0.40;0.40;;;25.10;99.90;;;;;;4994251;28;20207;-66
2022/06/06 11:02:00;;;;;;;0.40;0.40;;;25.60;99.90;;;;;;5002992;28;20253;-66
2022/06/06 11:05:14;;;;;;;0.50;0.50;;;26.10;99.90;;;;;;5002383;28;20227;-66
2022/06/06 11:08:30;;;;;;;0.40;0.40;;;26.60;99.90;;;;;;4995914;28;20254;-67
2022/06/06 11:11:45;;;;;;;1.02;0.73;;;27.00;99.90;;;;;;4996004;28;20581;-67
2022/06/06 11:14:38;;;;;;;1.90;1.80;;;27.20;99.90;;;;;;4997270;28;20227;-67
2022/06/06 11:18:06;;;;;;;1.50;1.40;;;27.40;99.90;;;;;;4996001;28;20254;-67
2022/06/06 11:21:34;;;;;;;0.52;0.40;;;27.70;99.90;;;;;;4996018;28;20667;-66
2022/06/06 11:24:32;;;;;;;0.40;0.40;;;27.80;99.90;;;;;;4979902;28;20226;-66
2022/06/06 11:27:40;;;;;;;0.40;0.40;;;27.80;99.90;;;;;;4995826;28;20215;-66
2022/06/06 11:30:54;;;;;;;0.40;0.40;;;28.00;99.90;;;;;;4997256;28;20206;-67
2022/06/06 11:34:12;;;;;;;0.40;0.40;;;28.20;99.90;;;;;;4995428;28;20590;-67
2022/06/06 11:37:37;;;;;;;1.48;1.48;;;28.50;98.60;;;;;;4996251;28;20207;-67
2022/06/06 11:40:54;;;;;;;0.68;0.68;;;28.40;99.00;;;;;;4994692;28;20215;-67
2022/06/06 11:44:15;;;;;;;0.40;0.40;;;28.20;98.50;;;;;;4996129;28;20203;-67
2022/06/06 11:47:42;;;;;;;0.40;0.40;;;27.90;98.40;;;;;;4995611;28;20200;-67
2022/06/06 11:50:54;;;;;;;0.40;0.40;;;27.70;98.40;;;;;;4995451;28;20329;-66
2022/06/06 11:54:34;;;;;;;0.40;0.40;;;27.70;98.20;;;;;;4995751;28;20286;-66
2022/06/06 11:57:36;;;;;;;0.40;0.40;;;27.60;98.80;;;;;;5009038;28;20202;-66
2022/06/06 12:00:37;;;;;;;0.40;0.40;;;27.80;98.00;;;;;;5017098;28;20202;-68
2022/06/06 12:03:58;;;;;;;0.40;0.40;;;28.30;97.20;;;;;;5015903;28;20213;-67
2022/06/06 12:07:19;;;;;;;0.60;0.60;;;28.70;97.10;;;;;;5015366;28;20259;-67
2022/06/06 12:10:14;;;;;;;0.40;0.40;;;28.40;96.50;;;;;;5013978;28;20198;-66
2022/06/06 12:13:35;;;;;;;0.40;0.40;;;28.10;97.20;;;;;;5014426;28;20199;-67
2022/06/06 12:16:32;;;;;;;0.60;0.57;;;28.10;97.80;;;;;;5009049;28;20199;-66
2022/06/06 12:19:55;;;;;;;0.40;0.40;;;28.30;95.70;;;;;;5013592;28;20203;-67
2022/06/06 12:23:09;;;;;;;0.40;0.40;;;28.50;95.90;;;;;;4993777;28;20242;-67
2022/06/06 12:26:03;;;;;;;0.40;0.40;;;28.70;95.80;;;;;;5014946;28;20226;-68
2022/06/06 12:29:19;;;;;;;0.40;0.40;;;28.60;95.20;;;;;;5013890;28;20202;-67
2022/06/06 12:32:28;;;;;;;0.40;0.40;;;28.70;95.80;;;;;;5013637;28;20203;-68
2022/06/06 12:35:23;;;;;;;0.70;0.70;;;28.80;94.20;;;;;;5013529;28;20219;-68
2022/06/06 12:38:30;;;;;;;0.40;0.40;;;29.00;93.20;;;;;;5013318;28;20230;-68
2022/06/06 12:41:37;;;;;;;0.40;0.40;;;28.90;93.10;;;;;;5013967;28;20210;-68
2022/06/06 12:44:40;;;;;;;0.40;0.40;;;28.80;93.80;;;;;;5013395;28;20219;-67
2022/06/06 12:47:48;;;;;;;0.40;0.40;;;28.70;93.10;;;;;;5015147;28;20285;-67
2022/06/06 12:50:49;;;;;;;0.82;0.80;;;28.60;93.40;;;;;;5013943;28;20206;-67
2022/06/06 12:54:03;;;;;;;0.40;0.40;;;28.70;93.80;;;;;;5014408;28;20199;-67
2022/06/06 12:56:54;;;;;;;0.52;0.47;;;28.80;93.50;;;;;;5013799;28;20694;-69
2022/06/06 12:59:54;;;;;;;0.50;0.50;;;29.70;92.70;;;;;;5017999;28;20230;-67
2022/06/06 13:02:57;;;;;;;0.40;0.40;;;31.60;91.30;;;;;;5014967;28;20207;-68
2022/06/06 13:05:58;;;;;;;0.40;0.40;;;35.20;83.80;;;;;;5014346;28;20226;-68
2022/06/06 13:08:59;;;;;;;0.40;0.40;;;37.60;72.50;;;;;;5012326;28;20230;-67
2022/06/06 13:11:58;;;;;;;0.40;0.40;;;40.00;66.00;;;;;;5012306;28;20281;-67
2022/06/06 13:15:03;;;;;;;0.45;0.45;;;40.50;56.90;;;;;;5012112;28;20776;-67
2022/06/06 13:18:09;;;;;;;0.40;0.40;;;41.00;51.90;;;;;;5012336;28;20214;-68
2022/06/06 13:21:11;;;;;;;0.50;0.50;;;40.30;49.50;;;;;;5011751;28;20682;-67
2022/06/06 13:24:30;;;;;;;0.60;0.60;;;38.50;50.90;;;;;;5012298;28;20718;-68
2022/06/06 13:27:29;;;;;;;0.40;0.40;;;36.50;54.20;;;;;;5013960;28;20203;-68
2022/06/06 13:30:20;;;;;;;0.40;0.40;;;35.70;54.00;;;;;;5012144;28;20210;-68
2022/06/06 13:33:42;;;;;;;0.40;0.40;;;35.70;54.40;;;;;;5014155;28;20222;-68
2022/06/06 13:36:50;;;;;;;0.40;0.40;;;34.30;56.00;;;;;;5013733;28;20194;-72
2022/06/06 13:39:51;;;;;;;0.40;0.40;;;32.70;58.20;;;;;;5014187;28;20207;-68
2022/06/06 13:42:58;;;;;;;0.40;0.40;;;31.10;59.60;;;;;;5014653;28;20206;-68
2022/06/06 13:45:49;;;;;;;0.40;0.40;;;30.50;61.60;;;;;;5013769;28;20288;-68
2022/06/06 13:49:10;;;;;;;0.40;0.40;;;30.90;63.40;;;;;;5013724;28;20280;-68
2022/06/06 13:52:25;;;;;;;0.40;0.40;;;31.10;61.60;;;;;;5014313;28;20202;-68
2022/06/06 13:55:28;;;;;;;0.40;0.40;;;30.10;62.80;;;;;;5012931;28;20221;-68
2022/06/06 13:58:36;;;;;;;0.50;0.50;;;29.70;65.00;;;;;;4994513;28;20199;-68
2022/06/06 14:01:41;;;;;;;0.50;0.50;;;28.60;70.10;;;;;;4993784;28;20211;-68
2022/06/06 14:04:52;;;;;;;0.70;0.70;;;27.80;76.10;;;;;;4993058;28;20310;-68
2022/06/06 14:07:58;;;;;;;0.40;0.40;;;27.10;80.40;;;;;;4994128;28;20637;-70
2022/06/06 14:11:02;;;;;;;0.60;0.60;;;26.70;83.10;;;;;;4995082;28;20203;-68
2022/06/06 14:13:54;;;;;;;0.40;0.40;;;26.50;86.30;;;;;;4994354;28;20630;-68
2022/06/06 14:16:46;;;;;;;0.73;0.70;;;26.50;88.70;;;;;;4993310;28;20227;-68
2022/06/06 14:19:49;;;;;;;1.00;1.00;;;28.80;87.40;;;;;;4993656;28;20702;-70
2022/06/06 14:22:40;;;;;;;1.77;1.67;;;31.90;82.50;;;;;;4994468;28;20207;-68
2022/06/06 14:25:45;;;;;;;0.40;0.40;;;35.50;74.20;;;;;;4991415;28;20227;-68
2022/06/06 14:28:35;;;;;;;1.05;1.05;;;37.60;66.60;;;;;;4991768;28;20253;-68
2022/06/06 14:31:27;;;;;;;0.40;0.40;;;38.60;61.20;;;;;;4992277;28;20285;-68
2022/06/06 14:34:28;;;;;;;0.40;0.40;;;39.60;60.40;;;;;;4992608;28;20559;-67
2022/06/06 14:37:19;;;;;;;0.73;0.73;;;38.40;61.10;;;;;;4992430;28;20330;-68
2022/06/06 14:40:10;;;;;;;0.77;0.77;;;36.20;63.50;;;;;;5001906;28;20679;-67
2022/06/06 14:43:00;;;;;;;0.40;0.40;;;34.10;67.40;;;;;;4995657;28;20203;-67
2022/06/06 14:45:55;;;;;;;0.40;0.40;;;32.40;70.20;;;;;;4996797;28;20234;-66
2022/06/06 14:48:53;;;;;;;0.70;0.57;;;31.00;74.30;;;;;;4997578;28;20199;-69
2022/06/06 14:51:43;;;;;;;0.40;0.40;;;29.60;75.50;;;;;;4997523;28;20210;-67
2022/06/06 14:54:31;;;;;;;0.40;0.40;;;28.60;79.30;;;;;;4997603;28;20262;-66
2022/06/06 14:57:19;;;;;;;0.40;0.40;;;28.20;79.50;;;;;;5009850;28;20230;-66
2022/06/06 15:00:15;;;;;;;0.40;0.40;;;27.50;85.10;;;;;;5015641;28;20265;-66
2022/06/06 15:03:08;;;;;;;0.40;0.40;;;27.10;91.10;;;;;;5016556;28;20198;-67
2022/06/06 15:06:06;;;;;;;0.40;0.40;;;25.80;91.60;;;;;;5015705;28;20226;-67
2022/06/06 15:09:02;;;;;;;0.40;0.40;;;25.00;93.00;;;;;;5015632;28;20757;-67
2022/06/06 15:11:50;;;;;;;0.40;0.40;;;24.00;99.90;;;;;;5016655;28;20202;-67
2022/06/06 15:14:38;;;;;;;0.95;0.82;;;23.10;99.90;;;;;;5017154;28;20741;-67
2022/06/06 15:17:30;;;;;;;0.40;0.40;;;22.50;99.90;;;;;;5016198;28;20706;-67
2022/06/06 15:20:27;;;;;;;0.70;0.65;;;22.30;99.90;;;;;;5017371;28;20621;-67
2022/06/06 15:23:20;;;;;;;0.50;0.50;;;22.10;99.90;;;;;;5017847;28;20222;-67
2022/06/06 15:26:19;;;;;;;0.93;0.63;;;21.80;99.90;;;;;;5016450;28;20269;-66
2022/06/06 15:29:18;;;;;;;0.40;0.40;;;21.60;99.90;;;;;;5017635;28;20205;-67
2022/06/06 15:32:13;;;;;;;0.40;0.40;;;21.70;99.90;;;;;;5015419;28;20201;-66
2022/06/06 15:35:14;;;;;;;0.40;0.40;;;21.90;99.90;;;;;;5016587;28;20215;-67
2022/06/06 15:38:17;;;;;;;0.40;0.40;;;21.90;99.90;;;;;;5016664;28;20205;-66
2022/06/06 15:41:15;;;;;;;0.80;0.80;;;21.90;99.90;;;;;;5015233;28;20203;-66
2022/06/06 15:44:11;;;;;;;0.40;0.40;;;21.90;99.90;;;;;;5016511;28;20259;-66
2022/06/06 15:47:07;;;;;;;0.40;0.40;;;22.00;99.90;;;;;;5016344;28;20215;-67
2022/06/06 15:50:22;;;;;;;0.40;0.40;;;22.00;99.90;;;;;;5016541;28;20198;-66
2022/06/06 15:53:38;;;;;;;0.40;0.40;;;22.10;99.90;;;;;;5017694;28;20694;-66
2022/06/06 15:56:40;;;;;;;0.40;0.40;;;22.00;99.90;;;;;;5012496;28;20253;-67
2022/06/06 15:59:54;;;;;;;0.47;0.47;;;22.10;99.90;;;;;;5018311;28;20804;-67
2022/06/06 16:02:44;;;;;;;0.40;0.40;;;21.80;99.90;;;;;;5017847;28;20202;-67
2022/06/06 16:05:38;;;;;;;1.95;1.10;;;21.70;99.90;;;;;;5033448;28;20222;-67
2022/06/06 16:08:41;;;;;;;0.40;0.40;;;21.60;99.90;;;;;;5027444;28;20277;-67
2022/06/06 16:11:40;;;;;;;0.75;0.75;;;21.50;99.90;;;;;;5031921;28;20209;-67